createdAt,value
2016-03-12T00:00:24.970Z,1025.94
2016-03-12T00:01:24.956Z,1025.98
2016-03-12T00:02:24.943Z,1025.96
2016-03-12T00:03:24.931Z,1025.95
2016-03-12T00:04:24.933Z,1025.95
2016-03-12T00:05:24.920Z,1025.94
2016-03-12T00:06:25.854Z,1025.96
2016-03-12T00:07:24.904Z,1025.93
2016-03-12T00:08:24.898Z,1025.92
2016-03-12T00:09:24.885Z,1025.91
2016-03-12T00:10:24.872Z,1025.91
2016-03-12T00:11:24.876Z,1025.89
2016-03-12T00:12:24.846Z,1025.91
2016-03-12T00:13:24.849Z,1025.9
2016-03-12T00:14:24.836Z,1025.91
2016-03-12T00:15:25.526Z,1025.94
2016-03-12T00:16:24.809Z,1025.91
2016-03-12T00:17:26.204Z,1025.9
2016-03-12T00:18:24.800Z,1025.94
2016-03-12T00:19:24.787Z,1025.9
2016-03-12T00:20:24.774Z,1025.92
2016-03-12T00:21:24.777Z,1025.95
2016-03-12T00:22:24.764Z,1025.95
2016-03-12T00:23:24.750Z,1025.92
2016-03-12T00:24:24.738Z,1025.94
2016-03-12T00:25:24.725Z,1025.96
2016-03-12T00:26:24.806Z,1025.91
2016-03-12T00:27:24.714Z,1025.9
2016-03-12T00:28:24.717Z,1025.95
2016-03-12T00:29:24.688Z,1025.94
2016-03-12T00:30:24.802Z,1025.9
2016-03-12T00:31:24.679Z,1025.96
2016-03-12T00:32:24.666Z,1025.94
2016-03-12T00:35:24.643Z,1026
2016-03-12T00:36:24.630Z,1025.91
2016-03-12T00:37:24.632Z,1025.93
2016-03-12T00:38:24.604Z,1025.94
2016-03-12T00:39:24.591Z,1025.99
2016-03-12T00:40:25.937Z,1025.97
2016-03-12T00:41:24.581Z,1025.96
2016-03-12T00:42:24.583Z,1025.97
2016-03-12T00:43:24.570Z,1025.97
2016-03-12T00:44:24.557Z,1026.05
2016-03-12T00:45:24.560Z,1025.97
2016-03-12T00:46:24.531Z,1025.97
2016-03-12T00:47:24.518Z,1025.97
2016-03-12T00:48:24.520Z,1025.98
2016-03-12T00:49:24.509Z,1025.96
2016-03-12T00:50:24.495Z,1025.98
2016-03-12T00:51:24.483Z,1025.98
2016-03-12T00:52:24.486Z,1025.99
2016-03-12T00:53:24.473Z,1026.03
2016-03-12T00:54:24.459Z,1026.01
2016-03-12T00:55:24.447Z,1025.98
2016-03-12T00:56:24.449Z,1026.02
2016-03-12T00:57:24.436Z,1026.02
2016-03-12T00:58:24.423Z,1026.05
2016-03-12T00:59:24.410Z,1026.04
2016-03-12T01:00:24.413Z,1026.01
2016-03-12T01:01:24.400Z,1025.99
2016-03-12T01:02:24.387Z,1026
2016-03-12T01:03:24.374Z,1026
2016-03-12T01:04:24.361Z,1025.99
2016-03-12T01:05:24.363Z,1025.97
2016-03-12T01:06:24.352Z,1026.01
2016-03-12T01:07:24.338Z,1026
2016-03-12T01:08:24.325Z,1025.97
2016-03-12T01:09:24.312Z,1026.01
2016-03-12T01:10:24.299Z,1026.01
2016-03-12T01:11:24.287Z,1025.99
2016-03-12T01:12:24.290Z,1025.98
2016-03-12T01:13:24.276Z,1025.99
2016-03-12T01:14:24.263Z,1026.01
2016-03-12T01:15:24.250Z,1025.93
2016-03-12T01:16:24.237Z,1025.96
2016-03-12T01:17:24.224Z,1026
2016-03-12T01:18:24.227Z,1025.96
2016-03-12T01:19:24.214Z,1025.94
2016-03-12T01:20:24.201Z,1025.98
2016-03-12T01:21:24.204Z,1025.94
2016-03-12T01:22:24.191Z,1025.93
2016-03-12T01:23:24.209Z,1025.93
2016-03-12T01:24:24.164Z,1025.92
2016-03-12T01:25:24.152Z,1025.97
2016-03-12T01:26:24.139Z,1025.92
2016-03-12T01:27:24.126Z,1025.97
2016-03-12T01:28:24.128Z,1025.95
2016-03-12T01:29:24.116Z,1025.96
2016-03-12T01:30:24.103Z,1025.97
2016-03-12T01:31:24.091Z,1025.94
2016-03-12T01:32:24.077Z,1025.93
2016-03-12T01:33:24.064Z,1025.9
2016-03-12T01:34:24.067Z,1025.91
2016-03-12T01:35:24.554Z,1025.93
2016-03-12T01:36:24.041Z,1025.89
2016-03-12T01:37:24.246Z,1025.91
2016-03-12T01:38:24.030Z,1025.89
2016-03-12T01:39:24.018Z,1025.87
2016-03-12T01:40:24.005Z,1025.85
2016-03-12T01:41:23.992Z,1025.89
2016-03-12T01:42:23.979Z,1025.88
2016-03-12T01:43:23.965Z,1025.86
2016-03-12T01:44:23.968Z,1025.86
2016-03-12T01:45:23.940Z,1025.88
2016-03-12T01:46:24.396Z,1025.9
2016-03-12T01:47:23.929Z,1025.91
2016-03-12T01:48:24.855Z,1025.86
2016-03-12T01:49:23.904Z,1025.89
2016-03-12T01:50:23.907Z,1025.88
2016-03-12T01:51:24.894Z,1025.88
2016-03-12T01:52:23.881Z,1025.88
2016-03-12T01:53:23.868Z,1025.85
2016-03-12T01:54:24.106Z,1025.88
2016-03-12T01:55:23.842Z,1025.89
2016-03-12T01:56:23.844Z,1025.84
2016-03-12T01:57:23.831Z,1025.88
2016-03-12T01:58:23.819Z,1025.91
2016-03-12T01:59:23.806Z,1025.91
2016-03-12T02:00:24.543Z,1025.91
2016-03-12T02:01:24.139Z,1025.89
2016-03-12T02:02:23.783Z,1025.88
2016-03-12T02:03:23.817Z,1025.86
2016-03-12T02:04:24.007Z,1025.85
2016-03-12T02:05:23.744Z,1025.82
2016-03-12T02:06:23.746Z,1025.79
2016-03-12T02:07:23.734Z,1025.83
2016-03-12T02:08:23.721Z,1025.8
2016-03-12T02:09:23.708Z,1025.84
2016-03-12T02:10:23.695Z,1025.84
2016-03-12T02:11:23.698Z,1025.82
2016-03-12T02:12:23.685Z,1025.78
2016-03-12T02:13:23.672Z,1025.8
2016-03-12T02:14:23.659Z,1025.78
2016-03-12T02:15:23.646Z,1025.77
2016-03-12T02:16:23.633Z,1025.78
2016-03-12T02:17:23.621Z,1025.8
2016-03-12T02:18:23.623Z,1025.78
2016-03-12T02:19:23.609Z,1025.81
2016-03-12T02:20:23.597Z,1025.81
2016-03-12T02:21:23.584Z,1025.8
2016-03-12T02:22:23.571Z,1025.78
2016-03-12T02:23:23.573Z,1025.78
2016-03-12T02:24:23.561Z,1025.77
2016-03-12T02:25:23.547Z,1025.81
2016-03-12T02:26:23.534Z,1025.75
2016-03-12T02:27:23.522Z,1025.77
2016-03-12T02:28:23.508Z,1025.76
2016-03-12T02:29:23.497Z,1025.79
2016-03-12T02:30:23.499Z,1025.75
2016-03-12T02:31:23.486Z,1025.73
2016-03-12T02:32:23.472Z,1025.82
2016-03-12T02:33:23.460Z,1025.78
2016-03-12T02:34:23.462Z,1025.8
2016-03-12T02:35:23.450Z,1025.8
2016-03-12T02:36:23.452Z,1025.8
2016-03-12T02:37:23.424Z,1025.82
2016-03-12T02:38:23.410Z,1025.8
2016-03-12T02:39:23.413Z,1025.78
2016-03-12T02:40:23.385Z,1025.79
2016-03-12T02:41:23.371Z,1025.82
2016-03-12T02:42:23.374Z,1025.84
2016-03-12T02:43:23.362Z,1025.82
2016-03-12T02:44:23.349Z,1025.83
2016-03-12T02:45:23.335Z,1025.79
2016-03-12T02:46:23.338Z,1025.8
2016-03-12T02:47:23.325Z,1025.8
2016-03-12T02:48:23.313Z,1025.84
2016-03-12T02:49:23.300Z,1025.86
2016-03-12T02:50:23.287Z,1025.83
2016-03-12T02:51:23.273Z,1025.82
2016-03-12T02:52:23.261Z,1025.83
2016-03-12T02:53:24.450Z,1025.89
2016-03-12T02:54:23.251Z,1025.88
2016-03-12T02:55:23.237Z,1025.85
2016-03-12T02:56:23.225Z,1025.87
2016-03-12T02:57:24.353Z,1025.89
2016-03-12T02:58:24.012Z,1025.93
2016-03-12T02:59:23.202Z,1025.91
2016-03-12T03:00:23.188Z,1025.92
2016-03-12T03:01:23.175Z,1025.92
2016-03-12T03:02:23.163Z,1025.92
2016-03-12T03:03:23.150Z,1025.89
2016-03-12T03:04:23.871Z,1025.94
2016-03-12T03:05:23.124Z,1025.94
2016-03-12T03:06:23.127Z,1025.96
2016-03-12T03:07:23.114Z,1025.97
2016-03-12T03:08:23.101Z,1025.99
2016-03-12T03:09:23.088Z,1026.01
2016-03-12T03:10:23.075Z,1026
2016-03-12T03:12:23.065Z,1025.99
2016-03-12T03:13:23.051Z,1026.02
2016-03-12T03:14:23.038Z,1025.98
2016-03-12T03:15:23.026Z,1026.05
2016-03-12T03:16:23.013Z,1026.01
2016-03-12T03:17:23.015Z,1026.01
2016-03-12T03:18:23.003Z,1025.98
2016-03-12T03:19:22.989Z,1026.02
2016-03-12T03:20:22.977Z,1026.02
2016-03-12T03:21:22.964Z,1026.04
2016-03-12T03:22:22.967Z,1026.03
2016-03-12T03:23:22.954Z,1026.06
2016-03-12T03:24:22.940Z,1026.02
2016-03-12T03:25:22.928Z,1026.05
2016-03-12T03:26:22.914Z,1026.09
2016-03-12T03:27:22.917Z,1026.06
2016-03-12T03:28:22.905Z,1026.09
2016-03-12T03:29:22.892Z,1026.06
2016-03-12T03:30:22.878Z,1026.09
2016-03-12T03:31:22.866Z,1026.08
2016-03-12T03:32:22.853Z,1026.1
2016-03-12T03:33:22.840Z,1026.08
2016-03-12T03:34:22.827Z,1026.04
2016-03-12T03:35:22.830Z,1026.1
2016-03-12T03:36:22.817Z,1026.11
2016-03-12T03:37:22.804Z,1026.1
2016-03-12T03:38:22.791Z,1026.09
2016-03-12T03:39:22.777Z,1026.08
2016-03-12T03:40:22.766Z,1026.11
2016-03-12T03:41:22.768Z,1026.13
2016-03-12T03:42:22.755Z,1026.09
2016-03-12T03:43:22.741Z,1026.13
2016-03-12T03:44:22.729Z,1026.07
2016-03-12T03:45:22.732Z,1026.09
2016-03-12T03:46:22.719Z,1026.13
2016-03-12T03:47:22.706Z,1026.1
2016-03-12T03:48:22.693Z,1026.1
2016-03-12T03:49:22.680Z,1026.1
2016-03-12T03:50:22.667Z,1026.11
2016-03-12T03:51:22.653Z,1026.16
2016-03-12T03:52:22.656Z,1026.1
2016-03-12T03:53:22.643Z,1026.12
2016-03-12T03:54:22.631Z,1026.11
2016-03-12T03:55:22.617Z,1026.14
2016-03-12T03:56:22.605Z,1026.17
2016-03-12T03:57:22.592Z,1026.18
2016-03-12T03:58:22.595Z,1026.15
2016-03-12T03:59:22.581Z,1026.16
2016-03-12T04:00:22.569Z,1026.2
2016-03-12T04:01:22.556Z,1026.17
2016-03-12T04:02:22.543Z,1026.13
2016-03-12T04:03:22.545Z,1026.16
2016-03-12T04:04:22.532Z,1026.14
2016-03-12T04:05:22.520Z,1026.14
2016-03-12T04:06:22.507Z,1026.11
2016-03-12T04:07:22.494Z,1026.15
2016-03-12T04:08:22.480Z,1026.17
2016-03-12T04:09:22.483Z,1026.18
2016-03-12T04:10:22.471Z,1026.19
2016-03-12T04:11:22.458Z,1026.21
2016-03-12T04:12:22.444Z,1026.21
2016-03-12T04:13:23.447Z,1026.31
2016-03-12T04:14:22.513Z,1026.26
2016-03-12T04:15:23.687Z,1026.23
2016-03-12T04:16:22.409Z,1026.28
2016-03-12T04:17:22.395Z,1026.31
2016-03-12T04:18:22.993Z,1026.25
2016-03-12T04:19:22.370Z,1026.31
2016-03-12T04:20:22.357Z,1026.25
2016-03-12T04:21:22.343Z,1026.3
2016-03-12T04:22:22.331Z,1026.28
2016-03-12T04:23:22.349Z,1026.35
2016-03-12T04:24:23.008Z,1026.31
2016-03-12T04:25:22.559Z,1026.32
2016-03-12T04:26:22.295Z,1026.3
2016-03-12T04:27:22.392Z,1026.31
2016-03-12T04:28:22.628Z,1026.3
2016-03-12T04:29:22.365Z,1026.38
2016-03-12T04:30:22.259Z,1026.31
2016-03-12T04:31:22.246Z,1026.34
2016-03-12T04:32:22.780Z,1026.38
2016-03-12T04:33:22.235Z,1026.41
2016-03-12T04:34:22.222Z,1026.39
2016-03-12T04:35:22.210Z,1026.4
2016-03-12T04:36:22.197Z,1026.38
2016-03-12T04:37:22.183Z,1026.37
2016-03-12T04:38:22.187Z,1026.39
2016-03-12T04:39:22.158Z,1026.4
2016-03-12T04:41:22.147Z,1026.43
2016-03-12T04:42:22.229Z,1026.38
2016-03-12T04:43:22.122Z,1026.37
2016-03-12T04:44:22.109Z,1026.42
2016-03-12T04:45:22.096Z,1026.42
2016-03-12T04:46:22.098Z,1026.39
2016-03-12T04:47:22.086Z,1026.45
2016-03-12T04:48:22.073Z,1026.42
2016-03-12T04:49:22.060Z,1026.44
2016-03-12T04:50:22.047Z,1026.41
2016-03-12T04:51:22.035Z,1026.42
2016-03-12T04:52:22.037Z,1026.45
2016-03-12T04:53:22.023Z,1026.46
2016-03-12T04:54:22.011Z,1026.5
2016-03-12T04:55:21.998Z,1026.49
2016-03-12T04:56:21.985Z,1026.51
2016-03-12T04:57:21.973Z,1026.48
2016-03-12T04:58:21.959Z,1026.49
2016-03-12T04:59:21.962Z,1026.48
2016-03-12T05:00:21.949Z,1026.55
2016-03-12T05:01:21.936Z,1026.53
2016-03-12T05:02:21.923Z,1026.53
2016-03-12T05:03:21.911Z,1026.52
2016-03-12T05:04:21.897Z,1026.55
2016-03-12T05:05:21.900Z,1026.54
2016-03-12T05:06:21.887Z,1026.52
2016-03-12T05:07:21.876Z,1026.56
2016-03-12T05:08:21.863Z,1026.54
2016-03-12T05:09:21.849Z,1026.53
2016-03-12T05:10:21.837Z,1026.61
2016-03-12T05:11:21.823Z,1026.53
2016-03-12T05:12:21.812Z,1026.56
2016-03-12T05:13:21.798Z,1026.56
2016-03-12T05:14:21.801Z,1026.63
2016-03-12T05:15:21.787Z,1026.6
2016-03-12T05:16:21.775Z,1026.53
2016-03-12T05:17:21.756Z,1026.63
2016-03-12T05:18:21.728Z,1026.6
2016-03-12T05:19:21.703Z,1026.6
2016-03-12T05:20:21.692Z,1026.6
2016-03-12T05:21:21.665Z,1026.58
2016-03-12T05:22:21.644Z,1026.63
2016-03-12T05:23:21.626Z,1026.64
2016-03-12T05:24:21.609Z,1026.67
2016-03-12T05:25:21.591Z,1026.64
2016-03-12T05:26:21.589Z,1026.67
2016-03-12T05:27:21.573Z,1026.66
2016-03-12T05:28:21.558Z,1026.65
2016-03-12T05:29:21.543Z,1026.67
2016-03-12T05:30:21.528Z,1026.67
2016-03-12T05:31:21.514Z,1026.68
2016-03-12T05:32:21.499Z,1026.62
2016-03-12T05:33:21.501Z,1026.72
2016-03-12T05:34:21.487Z,1026.67
2016-03-12T05:35:21.473Z,1026.68
2016-03-12T05:36:21.459Z,1026.68
2016-03-12T05:37:21.478Z,1026.69
2016-03-12T05:38:21.434Z,1026.67
2016-03-12T05:39:21.436Z,1026.7
2016-03-12T05:40:21.424Z,1026.71
2016-03-12T05:41:21.426Z,1026.68
2016-03-12T05:42:22.695Z,1026.74
2016-03-12T05:43:21.384Z,1026.8
2016-03-12T05:44:21.372Z,1026.76
2016-03-12T05:45:21.781Z,1026.7
2016-03-12T05:46:21.345Z,1026.76
2016-03-12T05:47:21.535Z,1026.74
2016-03-12T05:48:21.335Z,1026.74
2016-03-12T05:51:21.296Z,1026.8
2016-03-12T05:52:21.283Z,1026.77
2016-03-12T05:53:21.271Z,1026.79
2016-03-12T05:54:21.571Z,1026.79
2016-03-12T05:55:21.260Z,1026.91
2016-03-12T05:56:21.247Z,1026.86
2016-03-12T05:58:21.675Z,1026.94
2016-03-12T05:59:21.209Z,1026.93
2016-03-12T06:00:21.195Z,1026.9
2016-03-12T06:01:21.183Z,1026.85
2016-03-12T06:02:21.185Z,1026.86
2016-03-12T06:03:21.173Z,1026.9
2016-03-12T06:04:21.160Z,1026.88
2016-03-12T06:05:21.147Z,1026.98
2016-03-12T06:06:21.134Z,1026.9
2016-03-12T06:07:21.121Z,1026.91
2016-03-12T06:08:21.108Z,1026.92
2016-03-12T06:09:21.111Z,1026.93
2016-03-12T06:10:21.098Z,1026.94
2016-03-12T06:11:21.084Z,1027
2016-03-12T06:12:21.072Z,1026.97
2016-03-12T06:13:21.058Z,1026.97
2016-03-12T06:14:21.046Z,1026.97
2016-03-12T06:15:21.048Z,1027
2016-03-12T06:16:21.020Z,1026.93
2016-03-12T06:17:21.023Z,1026.91
2016-03-12T06:18:21.010Z,1026.97
2016-03-12T06:19:20.997Z,1027.01
2016-03-12T06:20:20.999Z,1026.99
2016-03-12T06:21:20.971Z,1027.05
2016-03-12T06:22:20.974Z,1027
2016-03-12T06:23:20.961Z,1026.99
2016-03-12T06:24:20.947Z,1027.03
2016-03-12T06:25:20.935Z,1027
2016-03-12T06:26:20.922Z,1027.04
2016-03-12T06:27:20.925Z,1027
2016-03-12T06:28:20.896Z,1027.01
2016-03-12T06:29:20.899Z,1027.05
2016-03-12T06:30:20.886Z,1027.02
2016-03-12T06:31:20.873Z,1027.07
2016-03-12T06:32:20.860Z,1027.1
2016-03-12T06:33:20.846Z,1027.04
2016-03-12T06:34:20.835Z,1027.04
2016-03-12T06:35:20.837Z,1027.02
2016-03-12T06:36:20.824Z,1027.1
2016-03-12T06:37:20.811Z,1027.07
2016-03-12T06:38:20.798Z,1027.1
2016-03-12T06:39:20.785Z,1027.05
2016-03-12T06:40:20.772Z,1027.07
2016-03-12T06:41:20.775Z,1027.09
2016-03-12T06:42:20.746Z,1027.03
2016-03-12T06:43:20.749Z,1027.03
2016-03-12T06:44:20.736Z,1027.01
2016-03-12T06:45:20.723Z,1027.08
2016-03-12T06:46:20.711Z,1027.07
2016-03-12T06:47:20.698Z,1027.08
2016-03-12T06:48:20.700Z,1027.09
2016-03-12T06:49:20.686Z,1027.07
2016-03-12T06:50:20.689Z,1027.07
2016-03-12T06:51:21.911Z,1027.08
2016-03-12T06:52:21.195Z,1027.09
2016-03-12T06:53:20.635Z,1027.07
2016-03-12T06:54:20.903Z,1027.07
2016-03-12T06:55:21.156Z,1027.07
2016-03-12T06:56:20.612Z,1027.12
2016-03-12T06:57:20.599Z,1027.09
2016-03-12T06:58:20.585Z,1027.18
2016-03-12T06:59:20.589Z,1027.11
2016-03-12T07:00:20.576Z,1027.14
2016-03-12T07:01:20.563Z,1027.11
2016-03-12T07:02:20.549Z,1027.11
2016-03-12T07:03:20.537Z,1027.12
2016-03-12T07:04:20.524Z,1027.15
2016-03-12T07:05:20.526Z,1027.17
2016-03-12T07:06:20.515Z,1027.16
2016-03-12T07:07:20.845Z,1027.15
2016-03-12T07:08:20.504Z,1027.17
2016-03-12T07:09:20.475Z,1027.13
2016-03-12T07:10:21.025Z,1027.19
2016-03-12T07:11:20.465Z,1027.2
2016-03-12T07:12:20.451Z,1027.17
2016-03-12T07:13:20.439Z,1027.17
2016-03-12T07:14:20.425Z,1027.21
2016-03-12T07:15:20.414Z,1027.25
2016-03-12T07:16:20.400Z,1027.22
2016-03-12T07:17:20.403Z,1027.24
2016-03-12T07:18:20.390Z,1027.18
2016-03-12T07:19:20.737Z,1027.19
2016-03-12T07:20:20.380Z,1027.21
2016-03-12T07:21:20.366Z,1027.22
2016-03-12T07:22:20.353Z,1027.16
2016-03-12T07:23:20.341Z,1027.19
2016-03-12T07:24:20.328Z,1027.22
2016-03-12T07:25:20.315Z,1027.24
2016-03-12T07:26:20.318Z,1027.25
2016-03-12T07:27:20.305Z,1027.28
2016-03-12T07:28:20.292Z,1027.29
2016-03-12T07:29:20.279Z,1027.24
2016-03-12T07:30:20.282Z,1027.27
2016-03-12T07:31:20.269Z,1027.3
2016-03-12T07:32:20.255Z,1027.26
2016-03-12T07:33:20.243Z,1027.29
2016-03-12T07:34:20.229Z,1027.32
2016-03-12T07:35:20.233Z,1027.32
2016-03-12T07:36:20.220Z,1027.31
2016-03-12T07:37:20.207Z,1027.34
2016-03-12T07:38:20.209Z,1027.28
2016-03-12T07:39:20.196Z,1027.35
2016-03-12T07:40:20.184Z,1027.38
2016-03-12T07:41:20.186Z,1027.37
2016-03-12T07:42:20.174Z,1027.33
2016-03-12T07:43:20.160Z,1027.36
2016-03-12T07:44:20.148Z,1027.4
2016-03-12T07:45:20.150Z,1027.38
2016-03-12T07:46:20.137Z,1027.36
2016-03-12T07:47:20.125Z,1027.37
2016-03-12T07:48:20.111Z,1027.36
2016-03-12T07:49:20.098Z,1027.39
2016-03-12T07:50:20.100Z,1027.36
2016-03-12T07:51:20.103Z,1027.38
2016-03-12T07:52:20.075Z,1027.35
2016-03-12T07:53:20.061Z,1027.38
2016-03-12T07:54:20.065Z,1027.38
2016-03-12T07:55:20.052Z,1027.35
2016-03-12T07:56:20.039Z,1027.38
2016-03-12T07:57:20.041Z,1027.4
2016-03-12T07:58:20.029Z,1027.4
2016-03-12T07:59:20.016Z,1027.38
2016-03-12T08:00:20.002Z,1027.38
2016-03-12T08:01:19.990Z,1027.37
2016-03-12T08:02:19.992Z,1027.45
2016-03-12T08:03:19.996Z,1027.42
2016-03-12T08:04:19.982Z,1027.38
2016-03-12T08:05:19.969Z,1027.38
2016-03-12T08:06:19.972Z,1027.39
2016-03-12T08:07:19.944Z,1027.36
2016-03-12T08:08:19.946Z,1027.37
2016-03-12T08:09:19.934Z,1027.41
2016-03-12T08:10:19.920Z,1027.38
2016-03-12T08:11:19.907Z,1027.39
2016-03-12T08:12:20.223Z,1027.4
2016-03-12T08:13:19.898Z,1027.4
2016-03-12T08:14:19.884Z,1027.42
2016-03-12T08:15:19.887Z,1027.45
2016-03-12T08:16:19.874Z,1027.42
2016-03-12T08:17:19.861Z,1027.42
2016-03-12T08:18:19.864Z,1027.44
2016-03-12T08:19:20.476Z,1027.48
2016-03-12T08:20:19.838Z,1027.46
2016-03-12T08:21:20.059Z,1027.46
2016-03-12T08:22:20.203Z,1027.49
2016-03-12T08:23:19.814Z,1027.49
2016-03-12T08:24:19.802Z,1027.51
2016-03-12T08:25:19.992Z,1027.58
2016-03-12T08:26:19.791Z,1027.58
2016-03-12T08:27:20.528Z,1027.55
2016-03-12T08:28:19.766Z,1027.6
2016-03-12T08:29:19.768Z,1027.63
2016-03-12T08:30:19.756Z,1027.57
2016-03-12T08:31:19.743Z,1027.59
2016-03-12T08:32:19.730Z,1027.59
2016-03-12T08:33:19.732Z,1027.6
2016-03-12T08:34:19.719Z,1027.6
2016-03-12T08:36:19.709Z,1027.58
2016-03-12T08:37:19.696Z,1027.6
2016-03-12T08:38:19.699Z,1027.61
2016-03-12T08:39:19.686Z,1027.59
2016-03-12T08:40:19.673Z,1027.64
2016-03-12T08:41:19.660Z,1027.66
2016-03-12T08:42:19.663Z,1027.62
2016-03-12T08:43:19.665Z,1027.61
2016-03-12T08:44:19.636Z,1027.65
2016-03-12T08:45:19.639Z,1027.63
2016-03-12T08:46:19.626Z,1027.69
2016-03-12T08:47:19.629Z,1027.74
2016-03-12T08:48:19.616Z,1027.8
2016-03-12T08:49:19.603Z,1027.86
2016-03-12T08:50:19.590Z,1027.86
2016-03-12T08:51:19.593Z,1027.86
2016-03-12T08:52:19.580Z,1027.85
2016-03-12T08:53:19.583Z,1027.86
2016-03-12T08:54:19.570Z,1027.82
2016-03-12T08:55:19.557Z,1027.84
2016-03-12T08:56:19.560Z,1027.77
2016-03-12T08:57:19.562Z,1027.72
2016-03-12T08:58:19.550Z,1027.66
2016-03-12T08:59:19.536Z,1027.66
2016-03-12T09:00:19.539Z,1027.63
2016-03-12T09:01:19.526Z,1027.66
2016-03-12T09:02:19.513Z,1027.65
2016-03-12T09:03:19.516Z,1027.62
2016-03-12T09:04:19.502Z,1027.62
2016-03-12T09:05:19.491Z,1027.61
2016-03-12T09:06:19.493Z,1027.68
2016-03-12T09:07:19.480Z,1027.68
2016-03-12T09:08:19.467Z,1027.68
2016-03-12T09:09:19.470Z,1027.65
2016-03-12T09:10:19.473Z,1027.64
2016-03-12T09:11:19.459Z,1027.63
2016-03-12T09:12:19.462Z,1027.63
2016-03-12T09:13:19.448Z,1027.66
2016-03-12T09:14:19.437Z,1027.67
2016-03-12T09:15:19.439Z,1027.7
2016-03-12T09:16:19.426Z,1027.65
2016-03-12T09:17:19.413Z,1027.63
2016-03-12T09:18:19.415Z,1027.68
2016-03-12T09:19:19.403Z,1027.69
2016-03-12T09:20:19.406Z,1027.64
2016-03-12T09:21:19.393Z,1027.63
2016-03-12T09:22:19.395Z,1027.69
2016-03-12T09:23:19.383Z,1027.71
2016-03-12T09:24:19.385Z,1027.68
2016-03-12T09:25:19.372Z,1027.69
2016-03-12T09:26:19.359Z,1027.69
2016-03-12T09:27:19.361Z,1027.68
2016-03-12T09:28:19.365Z,1027.72
2016-03-12T09:31:19.325Z,1027.74
2016-03-12T09:32:19.328Z,1027.74
2016-03-12T09:33:19.316Z,1027.74
2016-03-12T09:34:19.943Z,1027.74
2016-03-12T09:35:19.382Z,1027.74
2016-03-12T09:36:19.292Z,1027.72
2016-03-12T09:37:19.295Z,1027.66
2016-03-12T09:38:19.282Z,1027.71
2016-03-12T09:39:19.768Z,1027.72
2016-03-12T09:40:19.272Z,1027.71
2016-03-12T09:41:19.259Z,1027.76
2016-03-12T09:42:19.245Z,1027.7
2016-03-12T09:43:19.920Z,1027.73
2016-03-12T09:44:19.235Z,1027.71
2016-03-12T09:45:19.238Z,1027.71
2016-03-12T09:46:19.225Z,1027.73
2016-03-12T09:47:19.212Z,1027.72
2016-03-12T09:48:19.215Z,1027.67
2016-03-12T09:49:19.203Z,1027.72
2016-03-12T09:50:19.205Z,1027.71
2016-03-12T09:51:19.192Z,1027.71
2016-03-12T09:52:19.179Z,1027.69
2016-03-12T09:53:19.181Z,1027.7
2016-03-12T09:54:19.169Z,1027.71
2016-03-12T09:55:19.406Z,1027.71
2016-03-12T09:56:19.158Z,1027.73
2016-03-12T09:57:19.145Z,1027.71
2016-03-12T09:58:19.132Z,1027.73
2016-03-12T09:59:19.135Z,1027.73
2016-03-12T10:00:19.122Z,1027.71
2016-03-12T10:01:19.110Z,1027.73
2016-03-12T10:02:19.112Z,1027.75
2016-03-12T10:03:19.115Z,1027.74
2016-03-12T10:04:19.102Z,1027.81
2016-03-12T10:05:19.088Z,1027.83
2016-03-12T10:06:19.091Z,1027.77
2016-03-12T10:07:19.070Z,1027.81
2016-03-12T10:08:19.091Z,1027.77
2016-03-12T10:09:19.060Z,1027.84
2016-03-12T10:10:19.047Z,1027.78
2016-03-12T10:11:19.050Z,1027.79
2016-03-12T10:12:19.037Z,1027.8
2016-03-12T10:13:19.039Z,1027.78
2016-03-12T10:14:19.026Z,1027.77
2016-03-12T10:15:19.014Z,1027.78
2016-03-12T10:16:19.017Z,1027.76
2016-03-12T10:17:19.003Z,1027.75
2016-03-12T10:18:18.990Z,1027.82
2016-03-12T10:19:18.978Z,1027.8
2016-03-12T10:20:18.980Z,1027.77
2016-03-12T10:21:18.967Z,1027.79
2016-03-12T10:22:18.955Z,1027.74
2016-03-12T10:23:18.973Z,1027.83
2016-03-12T10:24:18.944Z,1027.78
2016-03-12T10:25:18.946Z,1027.83
2016-03-12T10:26:18.933Z,1027.84
2016-03-12T10:27:18.921Z,1027.87
2016-03-12T10:28:18.924Z,1027.84
2016-03-12T10:29:18.910Z,1027.82
2016-03-12T10:30:18.914Z,1027.81
2016-03-12T10:31:18.900Z,1027.88
2016-03-12T10:32:18.887Z,1027.78
2016-03-12T10:33:18.890Z,1027.81
2016-03-12T10:34:18.877Z,1027.78
2016-03-12T10:35:18.864Z,1027.84
2016-03-12T10:36:18.851Z,1027.76
2016-03-12T10:37:18.863Z,1027.79
2016-03-12T10:38:18.851Z,1027.84
2016-03-12T10:39:18.837Z,1027.85
2016-03-12T10:40:18.825Z,1027.86
2016-03-12T10:41:18.827Z,1027.86
2016-03-12T10:42:18.815Z,1027.83
2016-03-12T10:43:18.817Z,1027.88
2016-03-12T10:44:18.805Z,1027.89
2016-03-12T10:45:18.792Z,1027.84
2016-03-12T10:46:18.794Z,1027.83
2016-03-12T10:47:18.780Z,1027.85
2016-03-12T10:48:18.769Z,1027.79
2016-03-12T10:49:18.771Z,1027.76
2016-03-12T10:50:18.758Z,1027.79
2016-03-12T10:51:18.761Z,1027.82
2016-03-12T10:52:18.747Z,1027.77
2016-03-12T10:53:18.735Z,1027.75
2016-03-12T10:54:18.737Z,1027.73
2016-03-12T10:55:18.725Z,1027.75
2016-03-12T10:56:18.790Z,1027.74
2016-03-12T10:57:18.715Z,1027.73
2016-03-12T10:58:19.748Z,1027.75
2016-03-12T10:59:18.688Z,1027.75
2016-03-12T11:00:18.691Z,1027.81
2016-03-12T11:01:18.678Z,1027.84
2016-03-12T11:02:18.665Z,1027.83
2016-03-12T11:03:18.917Z,1027.88
2016-03-12T11:04:18.937Z,1027.92
2016-03-12T11:05:18.751Z,1027.84
2016-03-12T11:06:18.645Z,1027.85
2016-03-12T11:07:19.429Z,1027.83
2016-03-12T11:08:19.072Z,1027.84
2016-03-12T11:09:18.622Z,1027.81
2016-03-12T11:10:18.874Z,1027.77
2016-03-12T11:11:18.612Z,1027.78
2016-03-12T11:12:18.598Z,1027.8
2016-03-12T11:13:18.586Z,1027.83
2016-03-12T11:14:18.588Z,1027.86
2016-03-12T11:17:18.564Z,1027.83
2016-03-12T11:18:18.850Z,1027.81
2016-03-12T11:19:18.742Z,1027.82
2016-03-12T11:20:18.541Z,1027.78
2016-03-12T11:21:18.544Z,1027.83
2016-03-12T11:22:18.553Z,1027.77
2016-03-12T11:23:18.518Z,1027.71
2016-03-12T11:24:18.521Z,1027.75
2016-03-12T11:25:18.511Z,1027.74
2016-03-12T11:26:18.499Z,1027.75
2016-03-12T11:27:18.485Z,1027.74
2016-03-12T11:28:18.472Z,1027.77
2016-03-12T11:29:18.475Z,1027.79
2016-03-12T11:30:18.463Z,1027.77
2016-03-12T11:31:18.465Z,1027.8
2016-03-12T11:32:18.451Z,1027.77
2016-03-12T11:33:18.439Z,1027.8
2016-03-12T11:34:18.441Z,1027.8
2016-03-12T11:35:18.429Z,1027.73
2016-03-12T11:36:18.432Z,1027.82
2016-03-12T11:37:18.418Z,1027.79
2016-03-12T11:38:18.406Z,1027.76
2016-03-12T11:39:18.392Z,1027.8
2016-03-12T11:40:18.396Z,1027.78
2016-03-12T11:41:18.382Z,1027.75
2016-03-12T11:42:18.370Z,1027.71
2016-03-12T11:43:18.372Z,1027.77
2016-03-12T11:44:18.359Z,1027.77
2016-03-12T11:45:18.362Z,1027.74
2016-03-12T11:46:18.348Z,1027.84
2016-03-12T11:47:18.352Z,1027.78
2016-03-12T11:48:18.339Z,1027.7
2016-03-12T11:49:18.326Z,1027.7
2016-03-12T11:50:18.328Z,1027.7
2016-03-12T11:51:18.316Z,1027.69
2016-03-12T11:52:18.303Z,1027.81
2016-03-12T11:53:18.305Z,1027.78
2016-03-12T11:54:18.292Z,1027.78
2016-03-12T11:55:18.280Z,1027.74
2016-03-12T11:56:18.282Z,1027.71
2016-03-12T11:57:18.269Z,1027.81
2016-03-12T11:58:18.256Z,1027.68
2016-03-12T11:59:18.259Z,1027.73
2016-03-12T12:00:18.246Z,1027.7
2016-03-12T12:01:18.249Z,1027.72
2016-03-12T12:02:18.236Z,1027.7
2016-03-12T12:03:18.239Z,1027.68
2016-03-12T12:04:18.226Z,1027.65
2016-03-12T12:05:18.212Z,1027.65
2016-03-12T12:06:18.215Z,1027.6
2016-03-12T12:07:18.202Z,1027.63
2016-03-12T12:08:18.189Z,1027.68
2016-03-12T12:09:18.193Z,1027.69
2016-03-12T12:10:18.179Z,1027.6
2016-03-12T12:11:18.166Z,1027.61
2016-03-12T12:12:18.168Z,1027.58
2016-03-12T12:13:18.156Z,1027.59
2016-03-12T12:14:18.143Z,1027.59
2016-03-12T12:15:18.145Z,1027.56
2016-03-12T12:16:18.133Z,1027.56
2016-03-12T12:18:18.122Z,1027.62
2016-03-12T12:19:18.625Z,1027.63
2016-03-12T12:20:18.112Z,1027.62
2016-03-12T12:21:18.100Z,1027.69
2016-03-12T12:22:18.446Z,1027.67